Etusivu
METAR-TAF:

METAR-TAF

Lentoasemat :

Chièvres, Belgia

Leveyspiiri: 50-34N, Pituuspiiri: 003-50E, korkeus merenpinnasta: 60 m

Tämänhetkinen sää

Tämä raportti tehtiin 28 minuuttia sitten, kello 05.55 UTC
Tuuli 6 kn lounaasta
Lämpötila 15°C
Kosteus 94%
Ilmanpaine 1010 hPa
Näkyvyys 10 km tai enemmän

METAR: EBCV 020555Z AUTO 23006KT 9999 SCT017/// BKN082/// 15/14 Q1010 WHT

Aika: 08:23 (06:23 UTC)

Sääennuste

Tämä raportti tehtiin 14 tuntia ja 29 minuuttia sitten, kello 15.54 UTC
Ennuste voimassa 01. päivästä klo 19 UTC - 02. päivään klo 07 UTC
Tuuli 10 kn lännestä/lounaasta puuskistuen 20 kn:hen
Näkyvyys 10 km tai enemmän
Muutamia pilviä 3000 ft:n korkeudessa
Hajanaisia pilviä 6000 ft:n korkeudessa
Todennäköisyys 30% :
Ajoittain
02. päivästä klo 03 UTC - 02. päivään klo 07 UTC
Hajonneita pilviä 1000 ft:n korkeudessa

TAF: EBCV 011554Z 0119/0207 25010G20KT 9999 NSW FEW030 SCT060 PROB30 TEMPO 0203/0207 BKN010 BY EBWM

Säähavainnot ja -ennusteet yli 4000 lentoasemalta (METAR- ja TAF-raportit).

Käytössä olevat sääasemat on merkitty karttaan keltaisilla ja punaisilla pisteillä.

Aseta hiiri pisteen päälle nähdäksesi sääaseman nimen.

Klikkaa sitten nähdäksesi säähavainnot ja -ennusteet.

Kartan vaihtaminen: klikkaa mustalla rastilla varustettuja vihreitä pisteitä, niin voit zoomata sisään; viivalla varustettua vihreää pistettä, niin voit zoomata ulos tai vihreitä nuolia, niin pääset viereisille kartoille.


METAR-TAF: